createdAt,value
2017-06-14T00:00:49.680Z,11.40
2017-06-14T00:03:17.482Z,11.30
2017-06-14T00:05:44.467Z,11.30
2017-06-14T00:08:11.455Z,11.30
2017-06-14T00:10:39.255Z,11.40
2017-06-14T00:13:06.239Z,11.40
2017-06-14T00:15:33.219Z,11.50
2017-06-14T00:18:00.252Z,11.50
2017-06-14T00:20:28.019Z,11.60
2017-06-14T00:22:55.110Z,11.60
2017-06-14T00:25:22.095Z,11.60
2017-06-14T00:27:49.895Z,11.80
2017-06-14T00:30:16.878Z,11.80
2017-06-14T00:32:43.859Z,11.90
2017-06-14T00:35:11.627Z,12.10
2017-06-14T00:37:39.415Z,12.10
2017-06-14T00:40:06.386Z,12.10
2017-06-14T00:42:33.367Z,12.20
2017-06-14T00:45:00.374Z,12.30
2017-06-14T00:47:27.354Z,12.30
2017-06-14T00:49:54.375Z,12.30
2017-06-14T00:52:21.358Z,12.30
2017-06-14T00:54:49.153Z,12.20
2017-06-14T00:57:16.135Z,12.20
2017-06-14T00:59:43.114Z,12.20
2017-06-14T01:02:10.904Z,12.30
2017-06-14T01:04:37.888Z,12.30
2017-06-14T01:07:04.871Z,12.50
2017-06-14T01:09:32.670Z,12.50
2017-06-14T01:11:59.672Z,12.50
2017-06-14T01:14:26.702Z,12.50
2017-06-14T01:16:53.687Z,12.50
2017-06-14T01:19:20.694Z,12.50
2017-06-14T01:21:47.722Z,12.60
2017-06-14T01:24:14.710Z,12.50
2017-06-14T01:26:42.478Z,12.60
2017-06-14T01:29:09.459Z,12.60
2017-06-14T01:31:36.481Z,12.60
2017-06-14T01:34:03.471Z,12.60
2017-06-14T01:36:30.451Z,12.60
2017-06-14T01:38:57.463Z,12.50
2017-06-14T01:41:24.470Z,12.60
2017-06-14T01:43:51.482Z,12.70
2017-06-14T01:46:18.476Z,12.60
2017-06-14T01:48:45.498Z,12.60
2017-06-14T01:51:13.274Z,12.80
2017-06-14T01:53:40.298Z,12.80
2017-06-14T01:56:08.043Z,12.70
2017-06-14T01:58:35.023Z,12.70
2017-06-14T02:01:02.039Z,12.60
2017-06-14T02:03:34.903Z,12.60
2017-06-14T02:06:01.919Z,12.60
2017-06-14T02:08:28.917Z,12.60
2017-06-14T02:10:55.951Z,12.60
2017-06-14T02:13:23.931Z,12.60
2017-06-14T02:15:50.920Z,12.60
2017-06-14T02:18:17.931Z,12.60
2017-06-14T02:20:44.911Z,12.60
2017-06-14T02:23:11.927Z,12.60
2017-06-14T02:25:39.679Z,12.50
2017-06-14T02:28:06.714Z,12.50
2017-06-14T02:30:33.695Z,12.50
2017-06-14T02:33:01.474Z,12.50
2017-06-14T02:35:28.489Z,12.50
2017-06-14T02:37:56.252Z,12.60
2017-06-14T02:40:24.036Z,12.60
2017-06-14T02:42:51.021Z,12.60
2017-06-14T02:45:18.031Z,12.60
2017-06-14T02:47:45.117Z,12.60
2017-06-14T02:50:12.123Z,12.70
2017-06-14T02:52:39.112Z,12.60
2017-06-14T02:55:06.123Z,12.50
2017-06-14T02:57:33.123Z,12.60
2017-06-14T03:00:00.147Z,12.70
2017-06-14T03:02:27.137Z,12.60
2017-06-14T03:04:54.939Z,12.50
2017-06-14T03:07:21.928Z,12.50
2017-06-14T03:09:48.911Z,12.50
2017-06-14T03:12:16.699Z,12.50
2017-06-14T03:14:43.689Z,12.50
2017-06-14T03:17:10.723Z,12.60
2017-06-14T03:19:37.708Z,12.60
2017-06-14T03:22:05.487Z,12.60
2017-06-14T03:24:32.472Z,12.60
2017-06-14T03:26:59.483Z,12.60
2017-06-14T03:29:26.481Z,12.60
2017-06-14T03:31:53.499Z,12.70
2017-06-14T03:34:20.484Z,12.70
2017-06-14T03:36:47.491Z,12.70
2017-06-14T03:39:14.472Z,12.70
2017-06-14T03:41:41.516Z,12.60
2017-06-14T03:44:08.498Z,12.60
2017-06-14T03:46:35.490Z,12.50
2017-06-14T03:49:02.499Z,12.50
2017-06-14T03:51:29.484Z,12.40
2017-06-14T03:53:56.504Z,12.50
2017-06-14T03:56:23.492Z,12.40
2017-06-14T03:58:50.531Z,12.50
2017-06-14T04:01:17.556Z,12.40
2017-06-14T04:03:44.576Z,12.40
2017-06-14T04:06:11.565Z,12.40
2017-06-14T04:08:38.592Z,12.50
2017-06-14T04:11:05.590Z,12.50
2017-06-14T04:13:33.366Z,12.60
2017-06-14T04:16:00.355Z,12.60
2017-06-14T04:18:27.375Z,12.70
2017-06-14T04:20:54.359Z,12.70
2017-06-14T04:23:21.391Z,12.70
2017-06-14T04:25:48.375Z,12.80
2017-06-14T04:28:15.359Z,12.80
2017-06-14T04:30:42.371Z,12.80
2017-06-14T04:33:10.148Z,12.80
2017-06-14T04:35:37.935Z,12.90
2017-06-14T04:38:04.915Z,12.90
2017-06-14T04:40:31.925Z,12.90
2017-06-14T04:42:58.907Z,12.90
2017-06-14T04:45:25.935Z,13.00
2017-06-14T04:47:52.924Z,13.10
2017-06-14T04:50:20.689Z,13.40
2017-06-14T04:52:48.472Z,13.50
2017-06-14T04:55:15.474Z,13.50
2017-06-14T04:57:42.492Z,13.40
2017-06-14T05:00:09.483Z,13.30
2017-06-14T05:02:36.499Z,13.50
2017-06-14T05:05:03.489Z,13.70
2017-06-14T05:07:31.254Z,13.70
2017-06-14T05:09:59.035Z,13.90
2017-06-14T05:12:26.021Z,13.90
2017-06-14T05:14:53.010Z,13.70
2017-06-14T05:17:20.799Z,13.70
2017-06-14T05:19:47.792Z,13.70
2017-06-14T05:22:14.824Z,13.90
2017-06-14T05:24:42.836Z,13.90
2017-06-14T05:27:10.592Z,14.00
2017-06-14T05:29:37.616Z,14.00
2017-06-14T05:32:04.596Z,14.00
2017-06-14T05:34:31.581Z,14.00
2017-06-14T05:36:58.612Z,14.00
2017-06-14T05:39:25.651Z,14.20
2017-06-14T05:41:52.662Z,14.20
2017-06-14T05:44:19.644Z,14.30
2017-06-14T05:46:46.663Z,14.30
2017-06-14T05:49:14.406Z,14.50
2017-06-14T05:51:41.411Z,14.50
2017-06-14T05:54:08.387Z,14.40
2017-06-14T05:56:35.417Z,14.50
2017-06-14T05:59:02.392Z,14.70
2017-06-14T06:01:29.371Z,14.90
2017-06-14T06:03:57.147Z,15.00
2017-06-14T06:06:24.221Z,15.00
2017-06-14T06:08:51.254Z,14.80
2017-06-14T06:11:18.230Z,15.00
2017-06-14T06:13:45.300Z,15.10
2017-06-14T06:16:12.316Z,15.10
2017-06-14T06:18:39.292Z,15.30
2017-06-14T06:21:06.303Z,15.50
2017-06-14T06:23:33.283Z,15.40
2017-06-14T06:26:00.295Z,15.10
2017-06-14T06:28:27.275Z,15.40
2017-06-14T06:30:54.307Z,15.30
2017-06-14T06:33:21.290Z,15.20
2017-06-14T06:35:49.031Z,15.40
2017-06-14T06:38:16.032Z,15.40
2017-06-14T06:40:43.019Z,15.60
2017-06-14T06:43:10.048Z,15.60
2017-06-14T06:45:37.034Z,15.80
2017-06-14T06:48:04.779Z,15.90
2017-06-14T06:50:31.788Z,15.90
2017-06-14T06:52:58.776Z,16.10
2017-06-14T06:55:25.783Z,16.30
2017-06-14T06:57:52.767Z,16.20
2017-06-14T07:00:20.586Z,16.00
2017-06-14T07:02:47.564Z,15.90
2017-06-14T07:05:14.550Z,16.40
2017-06-14T07:07:41.573Z,17.00
2017-06-14T07:10:09.324Z,16.70
2017-06-14T07:12:36.351Z,16.70
2017-06-14T07:15:03.335Z,16.40
2017-06-14T07:17:31.088Z,16.40
2017-06-14T07:19:58.096Z,16.40
2017-06-14T07:22:25.071Z,16.30
2017-06-14T07:24:52.096Z,16.40
2017-06-14T07:27:19.079Z,16.50
2017-06-14T07:29:46.852Z,16.50
2017-06-14T07:32:13.863Z,16.50
2017-06-14T07:34:40.852Z,16.70
2017-06-14T07:37:07.855Z,16.70
2017-06-14T07:39:34.844Z,17.10
2017-06-14T07:42:01.875Z,16.90
2017-06-14T07:44:29.632Z,17.50
2017-06-14T07:46:57.387Z,17.70
2017-06-14T07:49:24.395Z,17.70
2017-06-14T07:51:51.374Z,17.10
2017-06-14T07:54:18.388Z,17.10
2017-06-14T07:56:45.371Z,17.80
2017-06-14T07:59:12.384Z,17.70
2017-06-14T08:01:39.361Z,17.90
2017-06-14T08:04:06.369Z,17.90
2017-06-14T08:06:33.344Z,17.60
2017-06-14T08:09:00.378Z,18.00
2017-06-14T08:11:27.399Z,18.20
2017-06-14T08:13:54.399Z,18.30
2017-06-14T08:16:21.376Z,18.40
2017-06-14T08:18:48.386Z,18.20
2017-06-14T08:21:15.363Z,17.80
2017-06-14T08:23:42.384Z,18.30
2017-06-14T08:26:10.153Z,18.40
2017-06-14T08:28:37.131Z,18.40
2017-06-14T08:31:04.135Z,18.50
2017-06-14T08:33:31.879Z,18.00
2017-06-14T08:35:58.890Z,18.00
2017-06-14T08:38:25.872Z,18.30
2017-06-14T08:40:52.880Z,18.30
2017-06-14T08:43:19.855Z,17.90
2017-06-14T08:45:46.885Z,18.10
2017-06-14T08:48:13.864Z,18.90
2017-06-14T08:50:40.848Z,19.20
2017-06-14T08:53:07.857Z,18.80
2017-06-14T08:55:34.839Z,19.00
2017-06-14T08:58:01.849Z,19.00
2017-06-14T09:00:28.831Z,19.20
2017-06-14T09:02:55.840Z,19.40
2017-06-14T09:05:22.818Z,19.40
2017-06-14T09:07:49.843Z,19.30
2017-06-14T09:10:17.602Z,18.80
2017-06-14T09:12:44.580Z,18.70
2017-06-14T09:15:11.591Z,18.20
2017-06-14T09:17:38.571Z,18.30
2017-06-14T09:20:05.651Z,18.50
2017-06-14T09:22:32.663Z,18.60
2017-06-14T09:24:59.692Z,18.30
2017-06-14T09:27:27.568Z,17.90
2017-06-14T09:29:55.339Z,19.00
2017-06-14T09:32:22.323Z,19.00
2017-06-14T09:34:49.348Z,19.50
2017-06-14T09:37:16.336Z,20.10
2017-06-14T09:39:43.315Z,19.90
2017-06-14T09:42:11.103Z,20.30
2017-06-14T09:44:38.091Z,20.30
2017-06-14T09:47:05.096Z,19.50
2017-06-14T09:49:32.080Z,19.90
2017-06-14T09:51:59.084Z,19.70
2017-06-14T09:54:26.069Z,19.40
2017-06-14T09:56:53.080Z,19.20
2017-06-14T09:59:20.070Z,19.40
2017-06-14T10:01:47.084Z,19.30
2017-06-14T10:04:14.071Z,18.90
2017-06-14T10:06:41.080Z,19.70
2017-06-14T10:09:08.110Z,20.40
2017-06-14T10:11:35.089Z,19.90
2017-06-14T10:14:02.099Z,20.00
2017-06-14T10:16:29.115Z,20.30
2017-06-14T10:18:56.893Z,20.50
2017-06-14T10:21:23.919Z,20.40
2017-06-14T10:23:51.664Z,19.90
2017-06-14T10:26:18.643Z,19.90
2017-06-14T10:28:45.652Z,20.40
2017-06-14T10:31:12.627Z,21.10
2017-06-14T10:33:40.400Z,21.30
2017-06-14T10:36:07.377Z,21.30
2017-06-14T10:38:34.380Z,20.80
2017-06-14T10:41:02.132Z,19.90
2017-06-14T10:43:29.146Z,19.80
2017-06-14T10:45:56.127Z,20.30
2017-06-14T10:48:23.150Z,20.60
2017-06-14T10:50:50.128Z,20.60
2017-06-14T10:53:17.908Z,21.80
2017-06-14T10:55:44.896Z,21.80
2017-06-14T10:58:11.907Z,21.50
2017-06-14T11:00:38.888Z,21.20
2017-06-14T11:03:05.892Z,21.10
2017-06-14T11:05:32.868Z,20.80
2017-06-14T11:07:59.891Z,20.40
2017-06-14T11:10:26.867Z,20.50
2017-06-14T11:12:53.843Z,20.90
2017-06-14T11:15:20.851Z,21.20
2017-06-14T11:17:47.900Z,21.40
2017-06-14T11:20:14.923Z,21.10
2017-06-14T11:22:41.899Z,21.10
2017-06-14T11:25:08.875Z,21.50
2017-06-14T11:27:35.878Z,21.40
2017-06-14T11:30:03.032Z,20.20
2017-06-14T11:32:30.083Z,20.40
2017-06-14T11:34:57.064Z,21.00
2017-06-14T11:37:24.071Z,21.00
2017-06-14T11:39:51.051Z,20.90
2017-06-14T11:42:18.056Z,21.10
2017-06-14T11:44:45.034Z,21.20
2017-06-14T11:47:12.040Z,21.80
2017-06-14T11:49:39.029Z,22.10
2017-06-14T11:52:06.048Z,21.70
2017-06-14T11:54:33.127Z,20.40
2017-06-14T11:57:00.138Z,21.40
2017-06-14T11:59:27.120Z,21.80
2017-06-14T12:01:54.130Z,22.70
2017-06-14T12:04:21.105Z,23.20
2017-06-14T12:06:48.121Z,23.10
2017-06-14T12:09:15.106Z,23.40
2017-06-14T12:11:42.121Z,23.10
2017-06-14T12:14:09.096Z,22.80
2017-06-14T12:16:36.075Z,22.20
2017-06-14T12:19:03.112Z,21.70
2017-06-14T12:21:31.020Z,22.90
2017-06-14T12:23:57.998Z,22.90
2017-06-14T12:26:25.039Z,23.10
2017-06-14T12:28:52.020Z,22.70
2017-06-14T12:31:19.763Z,22.10
2017-06-14T12:33:46.771Z,22.10
2017-06-14T12:36:13.791Z,22.60
2017-06-14T12:38:40.800Z,22.10
2017-06-14T12:41:07.776Z,22.50
2017-06-14T12:43:34.784Z,22.40
2017-06-14T12:46:01.765Z,21.80
2017-06-14T12:48:28.768Z,21.80
2017-06-14T12:50:55.747Z,21.60
2017-06-14T12:53:23.519Z,22.50
2017-06-14T12:55:50.500Z,22.40
2017-06-14T12:58:17.516Z,22.60
2017-06-14T13:00:44.520Z,22.70
2017-06-14T13:03:11.642Z,22.90
2017-06-14T13:05:38.625Z,22.40
2017-06-14T13:08:05.663Z,22.30
2017-06-14T13:10:32.653Z,21.60
2017-06-14T13:12:59.643Z,21.70
2017-06-14T13:15:26.651Z,22.30
2017-06-14T13:17:53.692Z,22.40
2017-06-14T13:20:20.699Z,22.10
2017-06-14T13:22:47.681Z,21.70
2017-06-14T13:25:14.712Z,21.60
2017-06-14T13:27:42.518Z,21.60
2017-06-14T13:30:09.531Z,21.50
2017-06-14T13:32:36.516Z,21.20
2017-06-14T13:35:03.526Z,21.50
2017-06-14T13:37:30.504Z,22.10
2017-06-14T13:39:57.555Z,22.50
2017-06-14T13:42:24.535Z,23.10
2017-06-14T13:44:51.511Z,23.00
2017-06-14T13:47:18.537Z,23.30
2017-06-14T13:49:46.311Z,30.70
2017-06-14T13:52:14.065Z,27.10
2017-06-14T13:54:41.839Z,24.20
2017-06-14T13:57:08.827Z,24.00
2017-06-14T13:59:35.848Z,23.10
2017-06-14T14:02:02.827Z,22.80
2017-06-14T14:04:29.865Z,22.80
2017-06-14T14:06:56.847Z,23.30
2017-06-14T14:09:23.876Z,23.60
2017-06-14T14:11:50.887Z,22.80
2017-06-14T14:14:17.895Z,21.80
2017-06-14T14:16:44.875Z,21.40
2017-06-14T14:19:11.899Z,21.70
2017-06-14T14:21:39.644Z,21.80
2017-06-14T14:24:06.623Z,21.80
2017-06-14T14:26:33.631Z,22.90
2017-06-14T14:29:00.612Z,23.00
2017-06-14T14:31:27.616Z,24.80
2017-06-14T14:33:54.593Z,25.80
2017-06-14T14:36:22.363Z,24.10
2017-06-14T14:38:49.339Z,24.10
2017-06-14T14:41:16.347Z,23.00
2017-06-14T14:43:44.095Z,22.20
2017-06-14T14:46:11.871Z,22.70
2017-06-14T14:48:39.619Z,22.90
2017-06-14T14:51:06.631Z,22.80
2017-06-14T14:53:33.611Z,22.20
2017-06-14T14:56:00.647Z,22.20
2017-06-14T14:58:27.626Z,21.70
2017-06-14T15:00:54.605Z,21.90
2017-06-14T15:03:21.607Z,22.00
2017-06-14T15:05:48.592Z,22.20
2017-06-14T15:08:15.603Z,22.70
2017-06-14T15:10:43.357Z,22.40
2017-06-14T15:13:11.152Z,22.60
2017-06-14T15:15:38.136Z,22.50
2017-06-14T15:18:05.167Z,22.90
2017-06-14T15:20:32.170Z,22.70
2017-06-14T15:22:59.159Z,23.10
2017-06-14T15:25:26.172Z,23.50
2017-06-14T15:27:53.155Z,24.00
2017-06-14T15:30:20.163Z,22.90
2017-06-14T15:32:47.143Z,23.30
2017-06-14T15:35:14.155Z,23.20
2017-06-14T15:37:41.246Z,23.50
2017-06-14T15:40:08.252Z,23.40
2017-06-14T15:42:35.239Z,24.00
2017-06-14T15:45:02.264Z,24.10
2017-06-14T15:47:29.249Z,23.90
2017-06-14T15:49:56.238Z,23.90
2017-06-14T15:52:23.264Z,24.20
2017-06-14T15:54:51.019Z,24.30
2017-06-14T15:57:18.024Z,24.20
2017-06-14T15:59:45.008Z,25.60
2017-06-14T16:02:12.019Z,25.30
2017-06-14T16:04:39.007Z,26.40
2017-06-14T16:07:06.800Z,25.40
2017-06-14T16:09:33.783Z,25.40
2017-06-14T16:12:00.804Z,26.20
2017-06-14T16:14:27.806Z,27.50
2017-06-14T16:16:54.838Z,28.40
2017-06-14T16:19:21.859Z,29.40
2017-06-14T16:21:48.867Z,29.60
2017-06-14T16:24:16.668Z,30.40
2017-06-14T16:26:43.655Z,30.30
2017-06-14T16:29:10.641Z,28.80
2017-06-14T16:31:37.648Z,27.20
2017-06-14T16:34:04.632Z,26.70
2017-06-14T16:36:31.647Z,27.40
2017-06-14T16:38:59.387Z,26.30
2017-06-14T16:41:26.415Z,26.30
2017-06-14T16:43:53.411Z,26.10
2017-06-14T16:46:21.207Z,24.90
2017-06-14T16:48:48.185Z,24.80
2017-06-14T16:51:15.167Z,26.30
2017-06-14T16:53:42.935Z,27.30
2017-06-14T16:56:10.678Z,27.90
2017-06-14T16:58:37.700Z,27.80
2017-06-14T17:01:04.691Z,28.10
2017-06-14T17:03:31.703Z,28.10
2017-06-14T17:05:58.719Z,27.60
2017-06-14T17:08:25.753Z,26.30
2017-06-14T17:10:52.754Z,24.80
2017-06-14T17:13:19.767Z,23.20
2017-06-14T17:15:46.751Z,23.20
2017-06-14T17:18:13.775Z,24.30
2017-06-14T17:20:40.762Z,23.60
2017-06-14T17:23:07.751Z,23.20
2017-06-14T17:25:34.759Z,22.40
2017-06-14T17:28:01.755Z,22.20
2017-06-14T17:30:28.762Z,22.00
2017-06-14T17:32:55.735Z,22.00
2017-06-14T17:35:22.744Z,21.80
2017-06-14T17:37:49.727Z,21.50
2017-06-14T17:40:16.744Z,21.30
2017-06-14T17:42:43.736Z,21.20
2017-06-14T17:45:10.748Z,21.00
2017-06-14T17:47:37.735Z,20.80
2017-06-14T17:50:04.771Z,20.50
2017-06-14T17:52:31.767Z,20.40
2017-06-14T17:54:58.816Z,20.50
2017-06-14T17:57:25.806Z,20.50
2017-06-14T17:59:52.799Z,20.60
2017-06-14T18:02:19.835Z,20.00
2017-06-14T18:04:47.587Z,20.20
2017-06-14T18:07:15.383Z,20.40
2017-06-14T18:09:42.395Z,20.40
2017-06-14T18:12:11.213Z,20.50
2017-06-14T18:14:38.228Z,20.40
2017-06-14T18:17:05.255Z,20.40
2017-06-14T18:19:32.231Z,20.30
2017-06-14T18:21:59.987Z,20.10
2017-06-14T18:24:27.000Z,20.10
2017-06-14T18:26:54.041Z,19.90
2017-06-14T18:29:21.063Z,19.80
2017-06-14T18:31:48.038Z,19.50
2017-06-14T18:34:15.051Z,19.40
2017-06-14T18:36:42.044Z,19.30
2017-06-14T18:39:09.156Z,19.30
2017-06-14T18:41:36.139Z,19.30
2017-06-14T18:44:03.144Z,19.30
2017-06-14T18:46:30.120Z,19.30
2017-06-14T18:48:57.128Z,19.20
2017-06-14T18:51:24.139Z,19.10
2017-06-14T18:53:51.153Z,19.00
2017-06-14T18:56:18.131Z,18.90
2017-06-14T18:58:45.163Z,18.90
2017-06-14T19:01:12.889Z,18.90
2017-06-14T19:03:39.871Z,18.70
2017-06-14T19:06:06.883Z,18.60
2017-06-14T19:08:33.872Z,18.60
2017-06-14T19:11:00.907Z,18.60
2017-06-14T19:13:27.896Z,18.50
2017-06-14T19:15:54.952Z,18.40
2017-06-14T19:18:22.026Z,18.30
2017-06-14T19:20:49.003Z,18.30
2017-06-14T19:23:16.029Z,18.10
2017-06-14T19:25:43.012Z,18.10
2017-06-14T19:28:09.995Z,18.10
2017-06-14T19:30:37.015Z,18.10
2017-06-14T19:33:04.761Z,18.00
2017-06-14T19:35:31.784Z,18.00
2017-06-14T19:37:58.796Z,18.00
2017-06-14T19:40:25.792Z,17.90
2017-06-14T19:42:52.800Z,17.80
2017-06-14T19:45:19.783Z,17.70
2017-06-14T19:47:46.793Z,17.70
2017-06-14T19:50:13.788Z,17.60
2017-06-14T19:52:41.565Z,17.40
2017-06-14T19:55:09.315Z,17.30
2017-06-14T19:57:36.352Z,17.30
2017-06-14T20:00:03.340Z,17.30
2017-06-14T20:02:30.370Z,17.30
2017-06-14T20:04:58.115Z,17.30
2017-06-14T20:07:25.863Z,17.20
2017-06-14T20:09:52.871Z,17.20
2017-06-14T20:12:19.856Z,17.20
2017-06-14T20:14:46.903Z,17.10
2017-06-14T20:17:13.888Z,17.00
2017-06-14T20:19:40.872Z,17.00
2017-06-14T20:22:07.879Z,17.00
2017-06-14T20:24:34.859Z,17.00
2017-06-14T20:27:01.894Z,16.90
2017-06-14T20:29:28.879Z,16.90
2017-06-14T20:31:55.863Z,16.80
2017-06-14T20:34:22.895Z,16.70
2017-06-14T20:36:50.643Z,16.60
2017-06-14T20:39:17.652Z,16.60
2017-06-14T20:41:44.635Z,16.50
2017-06-14T20:44:11.672Z,16.40
2017-06-14T20:46:38.655Z,16.30
2017-06-14T20:49:05.645Z,16.40
2017-06-14T20:51:32.671Z,16.40
2017-06-14T20:53:59.648Z,16.30
2017-06-14T20:56:26.623Z,16.20
2017-06-14T20:58:54.399Z,16.20
2017-06-14T21:01:21.384Z,16.20
2017-06-14T21:03:48.412Z,16.20
2017-06-14T21:06:16.436Z,16.10
2017-06-14T21:08:43.447Z,16.20
2017-06-14T21:11:10.472Z,16.30
2017-06-14T21:13:37.513Z,16.40
2017-06-14T21:16:04.499Z,16.30
2017-06-14T21:18:31.508Z,16.20
2017-06-14T21:20:58.516Z,16.10
2017-06-14T21:23:25.524Z,16.00
2017-06-14T21:25:52.548Z,15.90
2017-06-14T21:28:20.576Z,16.00
2017-06-14T21:30:47.587Z,16.00
2017-06-14T21:33:14.567Z,15.90
2017-06-14T21:35:41.656Z,15.80
2017-06-14T21:38:08.668Z,15.80
2017-06-14T21:40:36.590Z,15.80
2017-06-14T21:43:03.595Z,15.80
2017-06-14T21:45:31.351Z,15.70
2017-06-14T21:47:58.399Z,15.70
2017-06-14T21:50:26.152Z,15.80
2017-06-14T21:52:53.183Z,15.70
2017-06-14T21:55:20.175Z,15.80
2017-06-14T21:57:47.151Z,15.70
2017-06-14T22:00:14.205Z,15.60
2017-06-14T22:02:41.183Z,15.60
2017-06-14T22:05:08.161Z,15.60
2017-06-14T22:07:35.167Z,15.50
2017-06-14T22:10:02.151Z,15.60
2017-06-14T22:12:29.174Z,15.50
2017-06-14T22:14:56.165Z,15.50
2017-06-14T22:17:23.176Z,15.40
2017-06-14T22:19:50.919Z,15.60
2017-06-14T22:22:17.924Z,15.60
2017-06-14T22:24:44.899Z,15.50
2017-06-14T22:27:11.912Z,15.40
2017-06-14T22:29:38.894Z,15.40
2017-06-14T22:32:05.907Z,15.40
2017-06-14T22:34:32.891Z,15.30
2017-06-14T22:36:59.920Z,15.30
2017-06-14T22:39:26.942Z,15.30
2017-06-14T22:41:53.920Z,15.30
2017-06-14T22:44:20.901Z,15.30
2017-06-14T22:46:48.703Z,15.30
2017-06-14T22:49:15.684Z,15.30
2017-06-14T22:51:42.715Z,15.20
2017-06-14T22:54:09.726Z,15.10
2017-06-14T22:56:36.728Z,15.00
2017-06-14T22:59:03.740Z,15.00
2017-06-14T23:01:30.737Z,15.10
2017-06-14T23:03:58.519Z,15.00
2017-06-14T23:06:25.499Z,15.00
2017-06-14T23:08:52.515Z,15.10
2017-06-14T23:11:19.499Z,15.00
2017-06-14T23:13:46.527Z,15.00
2017-06-14T23:16:13.504Z,15.00
2017-06-14T23:18:40.487Z,15.20
2017-06-14T23:21:07.501Z,15.30
2017-06-14T23:23:34.543Z,15.30
2017-06-14T23:26:01.540Z,15.40
2017-06-14T23:28:28.531Z,15.30
2017-06-14T23:30:55.554Z,15.10
2017-06-14T23:33:22.531Z,15.10
2017-06-14T23:35:49.535Z,15.00
2017-06-14T23:38:16.588Z,15.10
2017-06-14T23:40:43.591Z,15.10
2017-06-14T23:43:11.347Z,14.90
2017-06-14T23:45:39.133Z,14.80
2017-06-14T23:48:06.120Z,14.80
2017-06-14T23:50:33.130Z,14.70
2017-06-14T23:53:00.111Z,14.50
2017-06-14T23:55:27.139Z,14.40
2017-06-14T23:57:54.132Z,14.30
